Latest Weather Observations for Casey (Skiway South)*

IDT60801

Issued at 12:35 pm EDT Saturday 22 November 2014 (issued every 30 minutes, with the page automatically refreshed every 10 minutes)

About weather observations | Map of weather stations | Latest weather observations for ANT | Other Formats
Station Details ID: 300060 Name: CASEY SKIWAY SOUTH Lat: -66.28 Lon: 110.76 Height: 390.0 m
Data from the previous 72 hours. | See also: Recent months for locations in Antarctica
Date/Time
EDT
Temp
°C
App
Temp
°C
Dew
Point
Rel
Hum
%
Delta-T
°C
Wind Press
QNH
hPa
Press
MSL
hPa
Rain
since 9 am
mm
Dir
 
Spd
km/h
Gust
km/h
Spd
kts
Gust
kts
22/12:30pm -7.4 -11.3 -11.1 75 0.7 WSW 4 6 2 3 991.3 - -
22/12:00pm -7.1 -11.0 -10.6 76 0.7 SW 4 6 2 3 991.5 - -
22/11:30am -6.7 -10.2 -10.5 74 0.7 SSW 2 4 1 2 991.7 - -
22/11:00am -6.4 -10.2 -10.1 75 0.7 S 4 4 2 2 991.9 - -
22/10:30am -6.9 -10.3 -10.1 78 0.6 S 2 6 1 3 992.0 - -
22/10:00am -7.1 -10.6 -10.3 78 0.6 S 2 4 1 2 992.1 - -
22/09:30am -7.8 -11.2 -10.2 83 0.4 SSE 2 2 1 1 992.1 - -
22/09:00am -7.5 -10.6 -10.5 79 0.5 CALM 0 2 0 1 992.3 - -
22/08:30am -8.1 -11.6 -10.5 83 0.3 SSW 2 4 1 2 992.5 - -
22/08:00am -8.4 -11.9 -10.8 83 0.3 S 2 4 1 2 992.6 - -
22/07:30am -8.7 -12.6 -11.4 81 0.4 S 4 4 2 2 992.6 - -
22/07:00am -9.0 -13.0 -12.1 78 0.4 E 4 6 2 3 992.7 - -
22/06:30am -8.8 -12.7 -11.8 79 0.4 E 4 6 2 3 992.7 - -
22/06:00am -8.7 -12.3 -11.7 79 0.4 ENE 2 6 1 3 992.8 - -
22/05:30am -9.1 -13.0 -11.7 81 0.3 NE 4 6 2 3 993.0 - -
22/05:00am -8.9 -13.2 -11.4 82 0.3 NE 6 7 3 4 993.2 - -
22/04:30am -9.0 -13.5 -11.3 83 0.3 ENE 7 9 4 5 993.2 - -
22/04:00am -9.6 -14.5 -11.9 83 0.3 E 9 11 5 6 993.3 - -
22/03:30am -9.3 -13.8 -11.3 85 0.2 E 7 7 4 4 993.5 - -
22/03:00am -9.2 -13.7 -11.1 86 0.2 E 7 7 4 4 993.7 - -
22/02:30am -8.9 -13.2 -11.0 85 0.2 E 6 9 3 5 994.0 - -
22/02:00am -8.8 -13.6 -10.7 86 0.2 E 9 11 5 6 994.2 - -
22/01:30am -8.6 -13.4 -10.7 85 0.2 E 9 11 5 6 994.3 - -
22/01:00am -8.4 -12.8 -10.9 82 0.3 E 7 9 4 5 994.5 - -
22/12:30am -8.3 -12.7 -10.8 82 0.4 E 7 9 4 5 994.6 - -
22/12:00am -8.2 -13.0 -10.6 83 0.3 E 9 13 5 7 994.6 - -
 
Date/Time
EDT
Temp
°C
App
Temp
°C
Dew
Point
Rel
Hum
%
Delta-T
°C
Wind Press
QNH
hPa
Press
MSL
hPa
Rain
since 9 am
mm
Dir
 
Spd
km/h
Gust
km/h
Spd
kts
Gust
kts
21/11:30pm -8.1 -13.3 -11.1 79 0.5 E 11 11 6 6 994.6 - -
21/11:00pm -7.6 -12.1 -11.9 71 0.8 ENE 7 9 4 5 994.7 - -
21/10:30pm -7.2 -11.1 -11.2 73 0.7 NNE 4 6 2 3 994.9 - -
21/10:00pm -7.0 -10.9 -11.3 71 0.8 N 4 6 2 3 995.0 - -
21/09:30pm -7.2 -11.5 -10.9 75 0.7 NNW 6 7 3 4 995.1 - -
21/09:00pm -7.2 -11.7 -11.7 70 0.9 NNW 7 9 4 5 995.1 - -
21/08:30pm -6.8 -11.3 -11.7 68 1.0 NNW 7 11 4 6 995.1 - -
21/08:00pm -6.5 -11.0 -11.6 67 1.0 N 7 9 4 5 994.9 - -
21/07:30pm -6.6 -11.5 -11.3 69 0.9 N 9 13 5 7 994.9 - -
21/07:00pm -6.3 -11.1 -10.9 70 0.9 NNE 9 11 5 6 994.8 - -
21/06:30pm -6.5 -11.7 -10.5 73 0.8 NNE 11 15 6 8 994.9 - -
21/06:00pm -7.1 -13.0 -10.6 76 0.6 NNE 15 17 8 9 994.9 - -
21/05:30pm -6.7 -12.2 -10.2 76 0.7 NNE 13 17 7 9 994.9 - -
21/05:00pm -6.8 -12.4 -10.6 74 0.7 N 13 17 7 9 994.9 - -
21/04:30pm -6.8 -12.4 -11.3 70 0.9 N 13 17 7 9 994.8 - -
21/04:00pm -6.8 -12.4 -10.8 73 0.8 NNE 13 15 7 8 994.8 - -
21/03:30pm -6.9 -12.4 -10.2 77 0.6 NNE 13 15 7 8 994.8 - -
21/03:00pm -6.9 -12.4 -9.6 81 0.5 NNE 13 15 7 8 994.7 - -
21/02:30pm -7.1 -12.2 -9.5 83 0.4 NNE 11 15 6 8 994.8 - -
21/02:00pm -7.2 -12.7 -9.6 83 0.4 NNE 13 15 7 8 994.8 - -
21/01:30pm -7.3 -12.8 -9.5 84 0.3 NNE 13 17 7 9 994.7 - -
21/01:00pm -7.4 -12.9 -9.8 83 0.4 NNE 13 15 7 8 994.7 - -
21/12:30pm -7.3 -12.8 -10.1 80 0.5 NE 13 15 7 8 994.7 - -
21/12:00pm -7.4 -13.0 -10.4 79 0.5 NE 13 15 7 8 994.7 - -
21/11:30am -7.4 -12.9 -10.2 80 0.5 NE 13 15 7 8 994.6 - -
21/11:00am -7.9 -13.5 -10.6 81 0.4 NE 13 15 7 8 994.5 - -
21/10:30am -8.1 -13.7 -10.6 82 0.4 NE 13 15 7 8 994.5 - -
21/10:00am -8.2 -13.8 -10.7 82 0.4 NE 13 17 7 9 994.4 - -
21/09:30am -8.4 -14.3 -10.6 84 0.3 NE 15 17 8 9 994.3 - -
21/09:00am -8.5 -13.7 -10.4 86 0.2 NE 11 15 6 8 994.3 - -
21/08:30am -8.6 -14.2 -10.5 86 0.2 NE 13 13 7 7 994.1 - -
21/08:00am -8.5 -13.7 -10.4 86 0.2 NE 11 13 6 7 994.0 - -
21/07:30am -8.7 -13.5 -10.3 88 0.1 NE 9 11 5 6 993.9 - -
21/07:00am -8.8 -14.0 -10.6 87 0.2 NE 11 13 6 7 993.7 - -
21/06:30am -8.6 -14.2 -10.5 86 0.2 NE 13 15 7 8 993.6 - -
21/06:00am -8.8 -14.4 -10.9 85 0.2 ENE 13 17 7 9 993.4 - -
21/05:30am -8.9 -14.5 -10.8 86 0.2 ENE 13 15 7 8 993.3 - -
21/05:00am -8.8 -14.4 -10.7 86 0.2 ENE 13 15 7 8 993.2 - -
21/04:30am -8.8 -14.0 -10.4 88 0.1 ENE 11 13 6 7 993.1 - -
21/04:00am -8.7 -13.9 -10.6 86 0.2 ENE 11 13 6 7 993.0 - -
21/03:30am -8.7 -13.5 -10.2 89 0.1 ENE 9 11 5 6 992.9 - -
21/03:00am -8.6 -13.4 -10.1 89 0.1 ENE 9 11 5 6 992.8 - -
21/02:30am -8.4 -13.2 -9.9 89 0.1 NE 9 9 5 5 992.7 - -
21/02:00am -8.4 -12.8 -9.9 89 0.1 NE 7 7 4 4 992.5 - -
21/01:30am -8.3 -12.7 -10.1 87 0.2 NE 7 7 4 4 992.3 - -
21/01:00am -8.1 -12.5 -10.2 85 0.3 ENE 7 7 4 4 992.1 - -
21/12:30am -7.9 -12.1 -10.1 84 0.3 ENE 6 6 3 3 992.0 - -
21/12:00am -7.5 -11.3 -10.2 81 0.4 NE 4 6 2 3 991.9 - -
 
Date/Time
EDT
Temp
°C
App
Temp
°C
Dew
Point
Rel
Hum
%
Delta-T
°C
Wind Press
QNH
hPa
Press
MSL
hPa
Rain
since 9 am
mm
Dir
 
Spd
km/h
Gust
km/h
Spd
kts
Gust
kts
20/11:30pm -7.4 -11.2 -10.2 80 0.5 NE 4 4 2 2 991.7 - -
20/11:00pm -7.2 -11.0 -10.4 78 0.6 NE 4 4 2 2 991.7 - -
20/10:30pm -6.9 -10.8 -10.9 73 0.8 NNE 4 4 2 2 991.5 - -
20/10:00pm -7.1 -11.0 -11.1 73 0.8 N 4 6 2 3 991.5 - -
20/09:30pm -7.1 -11.3 -10.3 78 0.6 N 6 6 3 3 991.3 - -
20/09:00pm -7.1 -11.3 -9.9 80 0.5 NNW 6 7 3 4 991.1 - -
20/08:30pm -7.1 -11.5 -10.3 78 0.6 NNW 7 9 4 5 990.9 - -
20/08:00pm -7.0 -11.4 -10.3 77 0.6 NW 7 13 4 7 990.8 - -
20/07:30pm -7.0 -11.4 -10.3 77 0.6 NW 7 11 4 6 990.6 - -
20/07:00pm -6.8 -11.2 -10.8 73 0.8 NW 7 11 4 6 990.4 - -
20/06:30pm -6.6 -11.1 -11.0 71 0.9 NW 7 9 4 5 990.1 - -
20/06:00pm -6.6 -11.0 -10.8 72 0.8 NW 7 9 4 5 989.9 - -
20/05:30pm -6.1 -9.9 -10.0 74 0.8 WNW 4 7 2 4 989.8 - -
20/05:00pm -6.6 -11.0 -10.1 76 0.7 NNW 7 9 4 5 989.4 - -
20/04:30pm -6.5 -10.7 -9.8 77 0.6 NW 6 9 3 5 989.4 - -
20/04:00pm -6.5 -10.7 -9.8 77 0.6 NW 6 9 3 5 989.2 - -
20/03:30pm -6.6 -10.4 -9.8 78 0.6 NW 4 7 2 4 989.0 - -
20/03:00pm -6.9 -11.1 -10.2 77 0.6 NNW 6 7 3 4 988.9 - -
20/02:30pm -6.8 -10.6 -10.1 77 0.6 NNW 4 7 2 4 988.7 - -
20/02:00pm -6.6 -10.4 -10.3 75 0.7 N 4 6 2 3 988.4 - -
20/01:30pm -7.1 -11.0 -10.6 76 0.6 N 4 6 2 3 988.2 - -
20/01:00pm -6.7 -10.2 -10.7 73 0.8 N 2 4 1 2 988.0 - -
20/12:30pm -7.2 -10.7 -11.0 74 0.7 N 2 6 1 3 988.0 - -
20/12:00pm -6.7 -10.6 -11.4 69 0.9 NNE 4 6 2 3 987.9 - -
20/11:30am -7.8 -12.1 -11.6 74 0.7 NE 6 6 3 3 987.7 - -
20/11:00am -8.4 -12.7 -11.5 78 0.5 ENE 6 7 3 4 987.5 - -
20/10:30am -8.9 -13.8 -12.5 75 0.6 E 9 9 5 5 987.3 - -
20/10:00am -9.2 -14.5 -12.8 75 0.5 E 11 13 6 7 987.2 - -
20/09:30am -9.6 -14.6 -13.0 76 0.5 E 9 11 5 6 987.0 - -
20/09:00am -9.8 -14.8 -13.2 76 0.5 E 9 11 5 6 986.7 - -
20/08:30am -9.7 -14.3 -13.4 74 0.5 E 7 7 4 4 986.5 - -
20/08:00am -9.6 -14.2 -13.7 72 0.6 E 7 9 4 5 986.3 - -
20/07:30am -9.3 -13.8 -14.3 67 0.8 E 6 6 3 3 986.1 - -
20/07:00am -9.7 -14.1 -13.9 71 0.6 E 6 7 3 4 985.9 - -
20/06:30am -9.8 -14.4 -13.7 73 0.6 E 7 7 4 4 985.6 - -
20/06:00am -9.8 -14.8 -13.7 73 0.6 E 9 9 5 5 985.4 - -
20/05:30am -9.9 -14.9 -13.6 74 0.5 E 9 9 5 5 985.2 - -
20/05:00am -10.1 -15.1 -13.7 75 0.5 E 9 11 5 6 984.9 - -
20/04:30am -10.1 -15.5 -13.7 75 0.5 E 11 13 6 7 984.7 - -
20/04:00am -9.9 -15.3 -13.3 76 0.5 E 11 11 6 6 984.5 - -
20/03:30am -10.1 -15.8 -13.3 77 0.4 E 13 13 7 7 984.3 - -
20/03:00am -10.2 -15.6 -13.1 79 0.4 E 11 13 6 7 984.3 - -
20/02:30am -10.3 -16.4 -13.1 80 0.3 E 15 17 8 9 984.1 - -
20/02:00am -9.8 -14.7 -12.3 82 0.3 E 9 9 5 5 984.1 - -
20/01:30am -9.9 -14.8 -12.4 82 0.3 E 9 9 5 5 983.8 - -
20/01:00am -9.3 -13.6 -11.5 84 0.2 E 6 7 3 4 983.7 - -
20/12:30am -9.3 -13.2 -11.6 83 0.3 E 4 6 2 3 983.5 - -
20/12:00am -9.3 -12.9 -11.9 81 0.3 E 2 4 1 2 983.5 - -

Other Formats:

Comma delimited format used in spreadsheet applications
http://www.bom.gov.au/fwo/IDT60803/IDT60803.89809.axf

JavaScript Object Notation format (JSON) in row-major order
http://www.bom.gov.au/fwo/IDT60803/IDT60803.89809.json